createdAt,value
2018-02-27T00:00:35.297Z,16.12
2018-02-27T00:03:03.830Z,9.23
2018-02-27T00:05:32.243Z,14.77
2018-02-27T00:08:01.396Z,17.42
2018-02-27T00:10:29.800Z,12.90
2018-02-27T00:12:58.202Z,12.88
2018-02-27T00:15:27.407Z,10.10
2018-02-27T00:17:56.601Z,10.35
2018-02-27T00:20:25.752Z,7.75
2018-02-27T00:22:54.155Z,8.50
2018-02-27T00:25:23.368Z,7.43
2018-02-27T00:27:51.777Z,8.55
2018-02-27T00:30:20.159Z,7.55
2018-02-27T00:32:48.634Z,7.20
2018-02-27T00:35:17.044Z,7.03
2018-02-27T00:37:45.424Z,9.88
2018-02-27T00:40:13.914Z,8.60
2018-02-27T00:42:42.299Z,6.50
2018-02-27T00:45:10.708Z,8.57
2018-02-27T00:47:39.896Z,8.15
2018-02-27T00:50:08.292Z,6.85
2018-02-27T00:52:36.794Z,8.10
2018-02-27T00:55:05.948Z,5.65
2018-02-27T00:57:34.328Z,6.95
2018-02-27T01:00:03.460Z,6.07
2018-02-27T01:02:31.870Z,8.60
2018-02-27T01:05:00.268Z,6.85
2018-02-27T01:07:28.640Z,6.20
2018-02-27T01:09:57.085Z,7.53
2018-02-27T01:12:26.240Z,14.48
2018-02-27T01:14:54.636Z,6.87
2018-02-27T01:17:23.042Z,6.55
2018-02-27T01:19:52.292Z,5.87
2018-02-27T01:22:20.660Z,5.57
2018-02-27T01:24:49.039Z,6.32
2018-02-27T01:27:17.431Z,4.50
2018-02-27T01:29:45.923Z,4.95
2018-02-27T01:32:14.447Z,5.97
2018-02-27T01:34:43.587Z,5.78
2018-02-27T01:37:11.959Z,6.25
2018-02-27T01:39:40.346Z,6.03
2018-02-27T01:42:08.740Z,5.95
2018-02-27T01:44:37.118Z,5.00
2018-02-27T01:47:05.500Z,5.50
2018-02-27T01:49:33.895Z,5.75
2018-02-27T01:52:02.357Z,8.73
2018-02-27T01:54:30.756Z,7.65
2018-02-27T01:56:59.130Z,6.15
2018-02-27T01:59:27.529Z,6.40
2018-02-27T02:01:55.913Z,4.53
2018-02-27T02:04:24.287Z,7.43
2018-02-27T02:06:52.681Z,4.90
2018-02-27T02:09:21.207Z,5.35
2018-02-27T02:11:50.462Z,7.00
2018-02-27T02:14:18.849Z,6.43
2018-02-27T02:16:47.275Z,6.70
2018-02-27T02:19:15.779Z,8.85
2018-02-27T02:21:44.271Z,10.25
2018-02-27T02:24:12.651Z,9.07
2018-02-27T02:26:41.040Z,7.85
2018-02-27T02:29:09.452Z,9.23
2018-02-27T02:31:37.863Z,6.70
2018-02-27T02:34:07.034Z,7.65
2018-02-27T02:36:35.436Z,10.38
2018-02-27T02:39:04.605Z,8.60
2018-02-27T02:41:33.001Z,7.85
2018-02-27T02:44:02.201Z,7.85
2018-02-27T02:46:30.596Z,6.85
2018-02-27T02:48:59.880Z,9.23
2018-02-27T02:51:28.302Z,7.90
2018-02-27T02:53:56.695Z,8.70
2018-02-27T02:56:25.108Z,7.78
2018-02-27T02:58:53.563Z,8.10
2018-02-27T03:01:22.003Z,9.05
2018-02-27T03:03:51.144Z,9.10
2018-02-27T03:06:20.512Z,7.95
2018-02-27T03:08:49.672Z,10.52
2018-02-27T03:11:18.223Z,6.30
2018-02-27T03:13:46.612Z,9.18
2018-02-27T03:16:15.008Z,10.88
2018-02-27T03:18:43.376Z,9.05
2018-02-27T03:21:11.886Z,10.48
2018-02-27T03:23:40.414Z,8.52
2018-02-27T03:26:10.015Z,7.25
2018-02-27T03:28:39.200Z,6.07
2018-02-27T03:31:07.609Z,8.30
2018-02-27T03:33:36.832Z,7.50
2018-02-27T03:36:05.325Z,9.50
2018-02-27T03:38:33.781Z,6.85
2018-02-27T03:41:02.183Z,10.07
2018-02-27T03:43:30.712Z,6.35
2018-02-27T03:45:59.268Z,8.07
2018-02-27T03:48:27.711Z,8.02
2018-02-27T03:50:56.095Z,5.75
2018-02-27T03:53:24.468Z,7.93
2018-02-27T03:55:53.036Z,6.93
2018-02-27T03:58:22.387Z,8.50
2018-02-27T04:00:50.773Z,9.38
2018-02-27T04:03:19.163Z,7.22
2018-02-27T04:05:47.565Z,9.57
2018-02-27T04:08:16.000Z,7.07
2018-02-27T04:10:45.116Z,10.40
2018-02-27T04:13:13.596Z,8.45
2018-02-27T04:15:42.271Z,7.10
2018-02-27T04:18:10.638Z,8.35
2018-02-27T04:20:39.016Z,9.75
2018-02-27T04:23:07.413Z,10.57
2018-02-27T04:25:35.773Z,9.52
2018-02-27T04:28:04.971Z,9.38
2018-02-27T04:30:34.147Z,8.60
2018-02-27T04:33:03.305Z,9.13
2018-02-27T04:35:31.741Z,8.13
2018-02-27T04:38:00.943Z,9.10
2018-02-27T04:40:30.259Z,11.98
2018-02-27T04:42:58.736Z,12.23
2018-02-27T04:45:27.872Z,10.38
2018-02-27T04:47:56.284Z,11.23
2018-02-27T04:50:24.690Z,8.60
2018-02-27T04:52:53.854Z,9.38
2018-02-27T04:55:22.283Z,12.55
2018-02-27T04:57:51.436Z,14.15
2018-02-27T05:00:19.836Z,16.23
2018-02-27T05:02:48.976Z,14.57
2018-02-27T05:05:17.453Z,15.52
2018-02-27T05:07:46.049Z,12.43
2018-02-27T05:10:14.443Z,12.82
2018-02-27T05:12:42.830Z,12.80
2018-02-27T05:15:11.226Z,12.75
2018-02-27T05:17:39.627Z,14.52
2018-02-27T05:20:08.265Z,13.80
2018-02-27T05:22:36.666Z,15.80
2018-02-27T05:25:05.039Z,14.25
2018-02-27T05:27:33.446Z,14.70
2018-02-27T05:30:01.999Z,15.25
2018-02-27T05:32:31.297Z,11.27
2018-02-27T05:34:59.761Z,18.20
2018-02-27T05:37:28.134Z,15.65
2018-02-27T05:39:57.307Z,13.38
2018-02-27T05:42:25.819Z,14.02
2018-02-27T05:44:54.986Z,14.98
2018-02-27T05:47:23.380Z,24.70
2018-02-27T05:49:51.917Z,15.68
2018-02-27T05:52:20.448Z,14.48
2018-02-27T05:54:48.847Z,19.25
2018-02-27T05:57:18.037Z,17.33
2018-02-27T05:59:47.254Z,16.02
2018-02-27T06:02:16.404Z,13.98
2018-02-27T06:04:44.803Z,16.33
2018-02-27T06:07:13.177Z,14.85
2018-02-27T06:09:41.703Z,12.82
2018-02-27T06:12:10.107Z,16.55
2018-02-27T06:14:38.526Z,17.02
2018-02-27T06:17:07.705Z,16.92
2018-02-27T06:19:36.097Z,17.65
2018-02-27T06:22:04.495Z,14.85
2018-02-27T06:24:32.879Z,14.68
2018-02-27T06:27:02.066Z,13.48
2018-02-27T06:29:30.476Z,17.17
2018-02-27T06:31:59.675Z,20.90
2018-02-27T06:34:28.876Z,19.77
2018-02-27T06:36:58.023Z,21.52
2018-02-27T06:39:26.461Z,20.00
2018-02-27T06:41:55.636Z,17.73
2018-02-27T06:44:24.799Z,22.62
2018-02-27T06:46:53.227Z,17.60
2018-02-27T06:49:22.416Z,15.82
2018-02-27T06:51:50.839Z,19.00
2018-02-27T06:54:19.214Z,18.52
2018-02-27T06:56:48.490Z,18.65
2018-02-27T06:59:16.893Z,15.07
2018-02-27T07:01:45.297Z,24.42
2018-02-27T07:04:13.858Z,22.50
2018-02-27T07:06:42.399Z,21.73
2018-02-27T07:09:10.820Z,17.27
2018-02-27T07:11:40.023Z,26.05
2018-02-27T07:14:08.431Z,14.68
2018-02-27T07:16:36.845Z,19.35
2018-02-27T07:19:05.279Z,16.10
2018-02-27T07:21:33.652Z,13.18
2018-02-27T07:24:03.006Z,19.30
2018-02-27T07:26:31.500Z,18.52
2018-02-27T07:28:59.906Z,17.60
2018-02-27T07:31:29.095Z,14.70
2018-02-27T07:33:57.540Z,16.00
2018-02-27T07:36:26.175Z,20.02
2018-02-27T07:38:55.896Z,12.50
2018-02-27T07:41:25.067Z,13.73
2018-02-27T07:43:53.436Z,16.70
2018-02-27T07:46:21.868Z,16.62
2018-02-27T07:48:51.043Z,11.57
2018-02-27T07:51:19.448Z,10.43
2018-02-27T07:53:48.968Z,15.70
2018-02-27T07:56:17.356Z,21.52
2018-02-27T07:58:45.783Z,10.55
2018-02-27T08:01:14.195Z,10.95
2018-02-27T08:03:43.405Z,9.38
2018-02-27T08:06:12.558Z,23.10
2018-02-27T08:08:41.027Z,11.88
2018-02-27T08:11:09.423Z,12.60
2018-02-27T08:13:37.947Z,13.07
2018-02-27T08:16:06.358Z,10.65
2018-02-27T08:18:34.795Z,12.30
2018-02-27T08:21:04.109Z,9.88
2018-02-27T08:23:33.274Z,13.57
2018-02-27T08:26:01.670Z,13.82
2018-02-27T08:28:30.226Z,10.98
2018-02-27T08:30:58.647Z,9.80
2018-02-27T08:33:27.796Z,13.68
2018-02-27T08:35:56.192Z,12.65
2018-02-27T08:38:24.575Z,10.38
2018-02-27T08:40:53.086Z,11.82
2018-02-27T08:43:22.282Z,12.68
2018-02-27T08:45:50.744Z,10.73
2018-02-27T08:48:19.206Z,12.43
2018-02-27T08:50:47.585Z,9.90
2018-02-27T08:53:16.155Z,9.55
2018-02-27T08:55:44.715Z,9.57
2018-02-27T08:58:13.944Z,8.70
2018-02-27T09:00:42.328Z,8.82
2018-02-27T09:03:10.709Z,6.93
2018-02-27T09:05:39.106Z,7.40
2018-02-27T09:08:08.409Z,7.43
2018-02-27T09:10:36.783Z,4.05
2018-02-27T09:13:05.172Z,6.90
2018-02-27T09:15:33.923Z,5.60
2018-02-27T09:18:02.297Z,5.70
2018-02-27T09:20:31.501Z,7.47
2018-02-27T09:22:59.899Z,7.37
2018-02-27T09:25:28.282Z,6.82
2018-02-27T09:27:56.793Z,4.57
2018-02-27T09:30:25.198Z,9.45
2018-02-27T09:32:53.609Z,5.65
2018-02-27T09:35:21.968Z,7.70
2018-02-27T09:37:51.182Z,5.60
2018-02-27T09:40:20.342Z,5.55
2018-02-27T09:42:48.743Z,6.95
2018-02-27T09:45:17.902Z,6.60
2018-02-27T09:47:46.284Z,5.03
2018-02-27T09:50:14.771Z,5.45
2018-02-27T09:52:43.286Z,8.30
2018-02-27T09:55:12.627Z,5.07
2018-02-27T09:57:40.999Z,5.32
2018-02-27T10:00:09.444Z,5.70
2018-02-27T10:02:37.817Z,4.93
2018-02-27T10:05:06.404Z,5.80
2018-02-27T10:07:35.534Z,3.90
2018-02-27T10:10:03.904Z,4.05
2018-02-27T10:12:33.055Z,3.95
2018-02-27T10:15:01.658Z,4.32
2018-02-27T10:17:30.203Z,6.68
2018-02-27T10:19:58.687Z,3.70
2018-02-27T10:22:27.068Z,6.10
2018-02-27T10:24:55.552Z,2.72
2018-02-27T10:27:23.923Z,4.55
2018-02-27T10:29:52.509Z,4.55
2018-02-27T10:32:20.880Z,7.12
2018-02-27T10:34:49.272Z,3.60
2018-02-27T10:37:17.789Z,3.72
2018-02-27T10:39:46.163Z,4.30
2018-02-27T10:42:14.555Z,4.40
2018-02-27T10:44:43.280Z,5.05
2018-02-27T10:47:12.162Z,3.80
2018-02-27T10:49:40.649Z,3.97
2018-02-27T10:52:09.032Z,2.85
2018-02-27T10:54:37.415Z,3.55
2018-02-27T10:57:06.112Z,3.08
2018-02-27T10:59:34.548Z,5.93
2018-02-27T11:02:03.826Z,2.17
2018-02-27T11:04:32.255Z,7.05
2018-02-27T11:07:00.654Z,3.30
2018-02-27T11:09:29.033Z,2.62
2018-02-27T11:11:57.493Z,3.37
2018-02-27T11:14:26.663Z,4.05
2018-02-27T11:16:55.941Z,4.50
2018-02-27T11:19:24.328Z,2.95
2018-02-27T11:21:52.776Z,5.87
2018-02-27T11:24:31.103Z,5.22
2018-02-27T11:26:59.546Z,4.50
2018-02-27T11:29:28.728Z,6.95
2018-02-27T11:31:57.931Z,4.65
2018-02-27T11:34:27.704Z,4.72
2018-02-27T11:36:56.106Z,5.78
2018-02-27T11:39:25.308Z,5.10
2018-02-27T11:41:53.701Z,4.05
2018-02-27T11:44:23.156Z,2.45
2018-02-27T11:46:51.557Z,2.67
2018-02-27T11:49:19.970Z,4.10
2018-02-27T11:51:48.339Z,2.97
2018-02-27T11:54:16.718Z,4.18
2018-02-27T11:56:45.140Z,1.55
2018-02-27T11:59:13.508Z,3.10
2018-02-27T12:01:41.940Z,8.77
2018-02-27T12:04:10.325Z,2.20
2018-02-27T12:06:38.760Z,2.97
2018-02-27T12:09:07.141Z,7.07
2018-02-27T12:11:35.663Z,2.80
2018-02-27T12:14:04.328Z,5.32
2018-02-27T12:16:32.740Z,4.07
2018-02-27T12:19:01.139Z,3.30
2018-02-27T12:21:29.530Z,3.60
2018-02-27T12:23:58.715Z,5.20
2018-02-27T12:26:27.994Z,2.08
2018-02-27T12:28:56.421Z,3.05
2018-02-27T12:31:25.558Z,4.00
2018-02-27T12:33:54.003Z,3.70
2018-02-27T12:36:22.468Z,3.60
2018-02-27T12:38:51.635Z,5.55
2018-02-27T12:41:20.150Z,6.15
2018-02-27T12:43:48.523Z,5.30
2018-02-27T12:46:16.902Z,2.75
2018-02-27T12:48:45.286Z,2.58
2018-02-27T12:51:13.694Z,7.80
2018-02-27T12:53:42.900Z,2.95
2018-02-27T12:56:11.296Z,3.72
2018-02-27T12:58:39.720Z,2.50
2018-02-27T13:01:08.103Z,3.50
2018-02-27T13:03:36.536Z,4.28
2018-02-27T13:06:05.139Z,4.20
2018-02-27T13:08:46.381Z,3.33
2018-02-27T13:11:15.519Z,2.35
2018-02-27T13:13:45.197Z,4.95
2018-02-27T13:16:13.655Z,3.83
2018-02-27T13:18:43.361Z,5.03
2018-02-27T13:21:23.189Z,4.97
2018-02-27T13:23:52.059Z,2.67
2018-02-27T13:26:20.560Z,3.05
2018-02-27T13:28:48.957Z,2.40
2018-02-27T13:31:18.140Z,6.47
2018-02-27T13:33:50.350Z,3.87
2018-02-27T13:36:20.459Z,2.50
2018-02-27T13:38:48.951Z,2.83
2018-02-27T13:41:17.927Z,3.20
2018-02-27T13:43:47.976Z,3.35
2018-02-27T13:46:16.656Z,3.22
2018-02-27T13:48:46.143Z,2.53
2018-02-27T13:51:16.604Z,3.97
2018-02-27T13:53:45.364Z,3.35
2018-02-27T13:56:13.853Z,2.70
2018-02-27T13:58:42.501Z,2.60
2018-02-27T14:01:11.691Z,8.43
2018-02-27T14:03:40.986Z,6.10
2018-02-27T14:06:10.315Z,8.02
2018-02-27T14:08:41.220Z,4.43
2018-02-27T14:11:09.739Z,4.53
2018-02-27T14:13:38.467Z,4.55
2018-02-27T14:16:06.976Z,4.75
2018-02-27T14:18:35.357Z,4.95
2018-02-27T14:21:03.741Z,3.85
2018-02-27T14:23:32.384Z,6.97
2018-02-27T14:26:00.847Z,7.15
2018-02-27T14:28:29.431Z,4.43
2018-02-27T14:30:58.564Z,4.20
2018-02-27T14:33:27.004Z,5.30
2018-02-27T14:35:55.399Z,6.55
2018-02-27T14:38:23.828Z,7.65
2018-02-27T14:40:52.232Z,6.07
2018-02-27T14:43:20.663Z,5.62
2018-02-27T14:45:50.781Z,4.97
2018-02-27T14:48:19.156Z,4.62
2018-02-27T14:50:47.607Z,5.55
2018-02-27T14:53:16.041Z,4.72
2018-02-27T14:55:44.443Z,7.85
2018-02-27T14:58:12.945Z,4.65
2018-02-27T15:00:41.332Z,3.78
2018-02-27T15:03:09.739Z,5.80
2018-02-27T15:05:38.126Z,6.65
2018-02-27T15:08:06.527Z,6.37
2018-02-27T15:10:34.911Z,6.22
2018-02-27T15:13:04.143Z,4.65
2018-02-27T15:15:32.649Z,7.07
2018-02-27T15:18:01.177Z,4.25
2018-02-27T15:20:30.346Z,5.15
2018-02-27T15:22:58.736Z,7.10
2018-02-27T15:25:27.185Z,3.97
2018-02-27T15:27:55.616Z,6.20
2018-02-27T15:30:24.057Z,4.70
2018-02-27T15:32:52.517Z,5.57
2018-02-27T15:35:21.001Z,4.12
2018-02-27T15:37:49.379Z,9.65
2018-02-27T15:40:17.803Z,4.82
2018-02-27T15:42:46.409Z,3.45
2018-02-27T15:45:14.823Z,6.55
2018-02-27T15:47:43.203Z,3.78
2018-02-27T15:50:11.589Z,6.95
2018-02-27T15:52:40.295Z,5.18
2018-02-27T15:55:08.677Z,5.43
2018-02-27T15:57:37.102Z,4.50
2018-02-27T16:00:05.503Z,9.93
2018-02-27T16:02:34.679Z,9.35
2018-02-27T16:05:03.059Z,3.95
2018-02-27T16:07:31.580Z,5.05
2018-02-27T16:10:00.012Z,4.87
2018-02-27T16:12:28.419Z,7.45
2018-02-27T16:14:58.627Z,6.75
2018-02-27T16:17:27.139Z,4.05
2018-02-27T16:19:55.714Z,6.72
2018-02-27T16:22:24.880Z,6.72
2018-02-27T16:24:53.267Z,7.28
2018-02-27T16:27:21.871Z,7.20
2018-02-27T16:29:51.158Z,4.95
2018-02-27T16:32:20.806Z,10.00
2018-02-27T16:34:49.211Z,4.12
2018-02-27T16:37:17.758Z,5.85
2018-02-27T16:39:46.924Z,10.88
2018-02-27T16:42:16.209Z,8.77
2018-02-27T16:44:45.616Z,4.85
2018-02-27T16:47:14.392Z,6.22
2018-02-27T16:49:42.798Z,11.57
2018-02-27T16:52:11.369Z,9.13
2018-02-27T16:54:40.591Z,5.12
2018-02-27T16:57:10.091Z,5.90
2018-02-27T16:59:38.843Z,5.43
2018-02-27T17:02:07.307Z,7.57
2018-02-27T17:04:35.889Z,11.15
2018-02-27T17:07:04.845Z,9.63
2018-02-27T17:09:35.049Z,4.68
2018-02-27T17:12:04.901Z,5.85
2018-02-27T17:14:33.494Z,7.45
2018-02-27T17:17:02.731Z,7.85
2018-02-27T17:19:31.412Z,5.87
2018-02-27T17:21:59.949Z,5.93
2018-02-27T17:24:29.164Z,10.43
2018-02-27T17:26:58.342Z,11.60
2018-02-27T17:29:27.496Z,11.23
2018-02-27T17:31:56.172Z,7.22
2018-02-27T17:34:24.752Z,11.23
2018-02-27T17:36:53.203Z,10.73
2018-02-27T17:39:22.391Z,8.23
2018-02-27T17:41:51.545Z,6.65
2018-02-27T17:44:20.332Z,7.50
2018-02-27T17:46:49.195Z,6.87
2018-02-27T17:49:17.720Z,5.97
2018-02-27T17:51:46.945Z,9.43
2018-02-27T17:54:15.511Z,6.50
2018-02-27T17:56:44.739Z,7.28
2018-02-27T17:59:14.003Z,11.12
2018-02-27T18:01:42.543Z,7.75
2018-02-27T18:04:11.003Z,10.70
2018-02-27T18:06:40.376Z,9.82
2018-02-27T18:09:08.894Z,9.02
2018-02-27T18:11:38.082Z,11.30
2018-02-27T18:14:06.500Z,8.00
2018-02-27T18:16:35.163Z,21.00
2018-02-27T18:19:04.491Z,8.77
2018-02-27T18:21:33.218Z,10.48
2018-02-27T18:24:02.066Z,4.93
2018-02-27T18:26:30.584Z,7.80
2018-02-27T18:28:59.026Z,11.77
2018-02-27T18:31:27.426Z,8.13
2018-02-27T18:33:56.604Z,7.68
2018-02-27T18:36:25.024Z,8.38
2018-02-27T18:38:53.415Z,5.72
2018-02-27T18:41:21.846Z,6.15
2018-02-27T18:43:50.486Z,11.80
2018-02-27T18:46:18.731Z,10.27
2018-02-27T18:48:47.995Z,9.60
2018-02-27T18:51:16.387Z,11.73
2018-02-27T18:53:44.749Z,10.13
2018-02-27T18:56:13.204Z,8.27
2018-02-27T18:58:41.645Z,8.55
2018-02-27T19:01:10.939Z,7.55
2018-02-27T19:03:39.378Z,12.30
2018-02-27T19:06:07.941Z,6.97
2018-02-27T19:08:36.429Z,6.12
2018-02-27T19:11:04.986Z,11.55
2018-02-27T19:13:33.458Z,5.85
2018-02-27T19:16:02.782Z,7.75
2018-02-27T19:18:31.188Z,5.75
2018-02-27T19:20:59.621Z,8.13
2018-02-27T19:23:28.202Z,7.97
2018-02-27T19:25:59.929Z,11.48
2018-02-27T19:28:31.555Z,5.43
2018-02-27T19:30:59.980Z,8.20
2018-02-27T19:33:28.456Z,8.63
2018-02-27T19:35:57.005Z,9.98
2018-02-27T19:38:27.309Z,8.85
2018-02-27T19:40:56.670Z,15.35
2018-02-27T19:43:25.471Z,8.18
2018-02-27T19:45:54.036Z,14.55
2018-02-27T19:48:22.831Z,18.00
2018-02-27T19:50:51.483Z,14.32
2018-02-27T19:53:20.142Z,20.98
2018-02-27T19:55:49.393Z,19.52
2018-02-27T19:58:17.843Z,11.43
2018-02-27T20:00:47.775Z,11.63
2018-02-27T20:03:17.119Z,18.15
2018-02-27T20:05:46.251Z,10.95
2018-02-27T20:08:14.748Z,18.52
2018-02-27T20:10:43.184Z,14.35
2018-02-27T20:13:11.603Z,8.38
2018-02-27T20:15:41.325Z,12.13
2018-02-27T20:18:11.558Z,9.70
2018-02-27T20:20:40.015Z,15.07
2018-02-27T20:23:13.996Z,14.05
2018-02-27T20:25:42.428Z,14.20
2018-02-27T20:28:16.231Z,15.10
2018-02-27T20:30:44.655Z,16.52
2018-02-27T20:33:13.351Z,16.48
2018-02-27T20:35:42.800Z,12.52
2018-02-27T20:38:12.164Z,15.40
2018-02-27T20:40:40.706Z,13.93
2018-02-27T20:43:09.108Z,17.60
2018-02-27T20:45:37.559Z,7.55
2018-02-27T20:48:06.168Z,16.73
2018-02-27T20:50:35.146Z,9.40
2018-02-27T20:53:03.596Z,17.58
2018-02-27T20:55:32.824Z,16.00
2018-02-27T20:58:01.345Z,10.65
2018-02-27T21:00:29.744Z,13.65
2018-02-27T21:02:58.416Z,15.88
2018-02-27T21:05:26.801Z,14.65
2018-02-27T21:07:55.966Z,12.23
2018-02-27T21:10:24.646Z,12.73
2018-02-27T21:12:53.075Z,13.73
2018-02-27T21:15:21.777Z,17.90
2018-02-27T21:17:50.951Z,12.35
2018-02-27T21:20:20.195Z,14.30
2018-02-27T21:22:49.010Z,11.32
2018-02-27T21:25:17.451Z,12.85
2018-02-27T21:27:46.680Z,9.30
2018-02-27T21:30:15.217Z,9.13
2018-02-27T21:32:43.703Z,8.10
2018-02-27T21:35:12.894Z,9.63
2018-02-27T21:37:42.065Z,7.72
2018-02-27T21:40:10.540Z,17.08
2018-02-27T21:42:38.932Z,13.18
2018-02-27T21:45:07.373Z,14.52
2018-02-27T21:47:35.773Z,15.75
2018-02-27T21:50:04.317Z,11.38
2018-02-27T21:52:33.554Z,9.38
2018-02-27T21:55:02.038Z,7.75
2018-02-27T21:57:30.474Z,11.07
2018-02-27T21:59:59.798Z,11.93
2018-02-27T22:02:28.522Z,13.20
2018-02-27T22:04:57.121Z,13.98
2018-02-27T22:07:25.717Z,12.45
2018-02-27T22:09:54.297Z,9.77
2018-02-27T22:12:23.621Z,8.98
2018-02-27T22:14:52.022Z,11.18
2018-02-27T22:17:20.435Z,16.10
2018-02-27T22:19:48.832Z,10.40
2018-02-27T22:22:17.208Z,16.75
2018-02-27T22:24:45.631Z,8.48
2018-02-27T22:27:14.776Z,5.78
2018-02-27T22:29:43.267Z,8.32
2018-02-27T22:32:11.670Z,11.98
2018-02-27T22:34:40.130Z,11.43
2018-02-27T22:37:08.514Z,11.73
2018-02-27T22:39:36.996Z,17.27
2018-02-27T22:42:05.372Z,14.13
2018-02-27T22:44:33.892Z,10.80
2018-02-27T22:47:02.552Z,8.63
2018-02-27T22:49:30.933Z,7.75
2018-02-27T22:51:59.324Z,9.75
2018-02-27T22:54:27.930Z,12.27
2018-02-27T22:56:57.106Z,8.10
2018-02-27T22:59:25.656Z,10.25
2018-02-27T23:01:54.054Z,8.30
2018-02-27T23:04:22.439Z,8.20
2018-02-27T23:06:50.824Z,11.70
2018-02-27T23:09:19.231Z,6.90
2018-02-27T23:11:48.368Z,10.23
2018-02-27T23:14:16.900Z,6.47
2018-02-27T23:16:45.272Z,9.27
2018-02-27T23:19:13.674Z,7.85
2018-02-27T23:21:42.049Z,7.45
2018-02-27T23:24:12.909Z,10.05
2018-02-27T23:26:46.735Z,9.52
2018-02-27T23:29:18.099Z,10.45
2018-02-27T23:31:52.622Z,7.37
2018-02-27T23:34:29.296Z,7.15
2018-02-27T23:36:57.816Z,6.28
2018-02-27T23:39:27.239Z,10.23
2018-02-27T23:41:55.672Z,8.27
2018-02-27T23:44:24.084Z,9.20
2018-02-27T23:46:52.476Z,7.97
2018-02-27T23:49:20.846Z,9.07
2018-02-27T23:51:49.259Z,8.95
2018-02-27T23:54:17.641Z,8.65
2018-02-27T23:56:46.050Z,9.95
2018-02-27T23:59:14.411Z,8.75
